Time;durP1;ratioP1;P1;durP2;ratioP2;P2;SDS_P1;SDS_P2;PMS_P1;PMS_P2;Temp;Humidity;BMP_temperature;BMP_pressure;BME280_temperature;BME280_humidity;BME280_pressure;Samples;Min_cycle;Max_cycle;Signal;HPM_P1;HPM_P2
2023/06/12 00:01:28;;;;;;;9.35;2.90;;;17.90;99.90;;;;;;5078269;28;20040;-76
2023/06/12 00:03:56;;;;;;;7.95;2.80;;;17.90;99.90;;;;;;5076527;28;20129;-76
2023/06/12 00:06:22;;;;;;;8.20;3.00;;;17.80;99.90;;;;;;5077306;28;20040;-76
2023/06/12 00:08:47;;;;;;;8.70;2.70;;;17.80;99.90;;;;;;5076974;28;20045;-77
2023/06/12 00:11:13;;;;;;;10.15;2.63;;;17.80;99.90;;;;;;5076720;28;20032;-76
2023/06/12 00:13:44;;;;;;;8.90;2.97;;;17.70;99.90;;;;;;5076074;28;20036;-76
2023/06/12 00:16:10;;;;;;;8.90;2.83;;;17.70;99.90;;;;;;5078941;28;20044;-76
2023/06/12 00:18:40;;;;;;;9.88;3.15;;;18.10;99.90;;;;;;5078438;28;20028;-77
2023/06/12 00:21:10;;;;;;;8.63;2.80;;;17.60;99.90;;;;;;5079950;28;20051;-76
2023/06/12 00:23:37;;;;;;;8.43;3.10;;;17.50;99.90;;;;;;5075051;28;20032;-77
2023/06/12 00:26:03;;;;;;;9.57;3.30;;;17.50;99.90;;;;;;5081222;28;20047;-76
2023/06/12 00:28:29;;;;;;;10.77;2.78;;;17.40;99.90;;;;;;5078435;28;20036;-77
2023/06/12 00:30:55;;;;;;;7.82;2.90;;;17.40;99.90;;;;;;5085305;28;20060;-76
2023/06/12 00:33:21;;;;;;;11.98;2.85;;;17.40;99.90;;;;;;5075713;28;20035;-77
2023/06/12 00:35:47;;;;;;;11.45;3.10;;;17.30;99.90;;;;;;5078500;28;20072;-76
2023/06/12 00:38:14;;;;;;;11.52;2.90;;;17.30;99.90;;;;;;5078766;28;20045;-76
2023/06/12 00:40:40;;;;;;;8.20;3.05;;;17.20;99.90;;;;;;5079806;28;20071;-76
2023/06/12 00:43:08;;;;;;;9.68;2.85;;;17.20;99.90;;;;;;5078941;28;20052;-76
2023/06/12 00:45:35;;;;;;;9.50;3.00;;;17.20;99.90;;;;;;5077856;28;20317;-76
2023/06/12 00:48:00;;;;;;;7.55;2.60;;;17.10;99.90;;;;;;5078912;28;20047;-76
2023/06/12 00:50:27;;;;;;;8.60;2.80;;;17.10;99.90;;;;;;5074738;28;20182;-77
2023/06/12 00:52:54;;;;;;;9.90;2.80;;;17.10;99.90;;;;;;5062124;28;20051;-77
2023/06/12 00:55:21;;;;;;;7.93;2.70;;;17.10;99.90;;;;;;5075818;28;20161;-76
2023/06/12 00:57:47;;;;;;;10.35;3.17;;;17.10;99.90;;;;;;5080276;28;20223;-76
2023/06/12 01:00:15;;;;;;;7.88;2.63;;;17.00;99.90;;;;;;5078911;28;20113;-76
2023/06/12 01:02:44;;;;;;;11.52;2.85;;;17.00;99.90;;;;;;5077074;28;20109;-76
2023/06/12 01:05:12;;;;;;;10.80;3.30;;;17.00;99.90;;;;;;5077850;28;20108;-76
2023/06/12 01:07:47;;;;;;;10.40;3.17;;;17.00;99.90;;;;;;5061924;28;20040;-76
2023/06/12 01:10:31;;;;;;;8.45;2.95;;;16.90;99.90;;;;;;5077330;28;20032;-76
2023/06/12 01:12:59;;;;;;;9.52;2.83;;;16.90;99.90;;;;;;5078546;28;20036;-76
2023/06/12 01:15:25;;;;;;;11.68;2.80;;;16.90;99.90;;;;;;5078198;28;20107;-76
2023/06/12 01:17:51;;;;;;;8.57;3.00;;;16.90;99.90;;;;;;5078468;28;20052;-76
2023/06/12 01:20:17;;;;;;;11.15;3.20;;;16.80;99.90;;;;;;5078647;28;20032;-76
2023/06/12 01:22:50;;;;;;;9.10;3.00;;;16.80;99.90;;;;;;5061327;28;20032;-76
2023/06/12 01:25:35;;;;;;;8.05;2.97;;;16.80;99.90;;;;;;5075963;28;20107;-76
2023/06/12 01:28:07;;;;;;;8.57;3.00;;;16.80;99.90;;;;;;5073688;28;20036;-76
2023/06/12 01:30:46;;;;;;;12.32;3.10;;;16.60;99.90;;;;;;5078481;28;20024;-76
2023/06/12 01:33:18;;;;;;;10.95;3.00;;;16.70;99.90;;;;;;5079063;28;20058;-76
2023/06/12 01:35:46;;;;;;;7.70;2.90;;;16.60;99.90;;;;;;5075520;28;20181;-76
2023/06/12 01:38:23;;;;;;;8.95;2.97;;;16.50;99.90;;;;;;5078054;28;20107;-76
2023/06/12 01:40:50;;;;;;;10.70;3.40;;;16.60;99.90;;;;;;5075932;28;20096;-76
2023/06/12 01:43:16;;;;;;;11.00;3.53;;;16.50;99.90;;;;;;5076939;28;20152;-76
2023/06/12 01:45:42;;;;;;;10.80;3.42;;;16.40;99.90;;;;;;5074803;28;20044;-76
2023/06/12 01:48:08;;;;;;;9.98;3.15;;;16.40;99.90;;;;;;5078233;28;20089;-76
2023/06/12 01:50:34;;;;;;;9.25;3.03;;;16.40;99.90;;;;;;5074640;28;20112;-76
2023/06/12 01:53:01;;;;;;;8.68;2.97;;;16.40;99.90;;;;;;5078485;28;20044;-76
2023/06/12 01:55:27;;;;;;;9.02;2.78;;;16.30;99.90;;;;;;5074362;28;20048;-76
2023/06/12 01:57:53;;;;;;;9.95;2.90;;;16.30;99.90;;;;;;5077687;28;20040;-76
2023/06/12 02:00:19;;;;;;;10.02;3.08;;;16.30;99.90;;;;;;5061465;28;20063;-76
2023/06/12 02:02:45;;;;;;;11.15;3.60;;;16.30;99.90;;;;;;5076527;28;20290;-76
2023/06/12 02:05:11;;;;;;;9.18;3.53;;;16.20;99.90;;;;;;5067288;28;20032;-76
2023/06/12 02:07:38;;;;;;;11.57;3.50;;;16.20;99.90;;;;;;5058917;28;20346;-76
2023/06/12 02:10:04;;;;;;;11.50;3.35;;;16.20;99.90;;;;;;5073884;28;20297;-76
2023/06/12 02:12:30;;;;;;;11.88;3.40;;;16.20;99.90;;;;;;5077653;28;20052;-76
2023/06/12 02:14:57;;;;;;;9.25;2.90;;;16.20;99.90;;;;;;5056709;28;20066;-76
2023/06/12 02:17:23;;;;;;;8.10;3.13;;;16.10;99.90;;;;;;5073416;28;20066;-76
2023/06/12 02:19:49;;;;;;;9.50;2.92;;;16.10;99.90;;;;;;5075709;28;20104;-76
2023/06/12 02:22:15;;;;;;;11.85;3.10;;;16.00;99.90;;;;;;5076823;28;20040;-76
2023/06/12 02:24:41;;;;;;;10.52;3.33;;;16.00;99.90;;;;;;5074220;28;20041;-76
2023/06/12 02:27:06;;;;;;;8.70;2.92;;;16.00;99.90;;;;;;5072383;28;20282;-76
2023/06/12 02:29:32;;;;;;;10.50;3.20;;;16.00;99.90;;;;;;5059658;28;20101;-76
2023/06/12 02:31:58;;;;;;;11.85;3.40;;;16.00;99.90;;;;;;5076685;28;20218;-76
2023/06/12 02:34:24;;;;;;;9.82;3.25;;;16.00;99.90;;;;;;5076812;28;20383;-76
2023/06/12 02:36:50;;;;;;;10.07;3.60;;;15.90;99.90;;;;;;5060810;28;20254;-76
2023/06/12 02:39:16;;;;;;;8.68;3.22;;;15.90;99.90;;;;;;5077818;28;20040;-76
2023/06/12 02:41:47;;;;;;;8.77;3.22;;;15.80;99.90;;;;;;5074377;28;20043;-76
2023/06/12 02:44:13;;;;;;;9.68;3.22;;;15.80;99.90;;;;;;5057722;28;20270;-76
2023/06/12 02:46:59;;;;;;;8.77;3.17;;;15.80;99.90;;;;;;5077933;28;20056;-76
2023/06/12 02:49:27;;;;;;;9.63;3.17;;;15.70;99.90;;;;;;5075118;28;20159;-76
2023/06/12 02:51:52;;;;;;;10.43;3.25;;;15.70;99.90;;;;;;5077267;28;20044;-76
2023/06/12 02:54:21;;;;;;;10.05;3.35;;;15.70;99.90;;;;;;5077753;28;20029;-76
2023/06/12 02:56:47;;;;;;;9.88;3.50;;;15.70;99.90;;;;;;5077084;28;20328;-76
2023/06/12 02:59:17;;;;;;;10.10;3.67;;;15.60;99.90;;;;;;5077653;28;20044;-76
2023/06/12 03:01:44;;;;;;;11.88;3.33;;;15.60;99.90;;;;;;5061565;28;20178;-76
2023/06/12 03:04:11;;;;;;;9.82;3.42;;;15.60;99.90;;;;;;5059275;28;20200;-76
2023/06/12 03:06:38;;;;;;;9.32;3.38;;;15.60;99.90;;;;;;5058157;28;20051;-76
2023/06/12 03:09:05;;;;;;;10.55;3.55;;;15.50;99.90;;;;;;5072972;28;20189;-76
2023/06/12 03:11:32;;;;;;;9.60;3.65;;;15.50;99.90;;;;;;5075942;28;20171;-76
2023/06/12 03:13:58;;;;;;;10.05;3.72;;;15.50;99.90;;;;;;5075869;28;20028;-76
2023/06/12 03:16:24;;;;;;;9.85;3.53;;;15.40;99.90;;;;;;5075952;28;20278;-76
2023/06/12 03:18:50;;;;;;;11.45;3.78;;;15.40;99.90;;;;;;5076598;28;20051;-76
2023/06/12 03:21:15;;;;;;;9.10;3.50;;;15.40;99.90;;;;;;5057825;28;20052;-76
2023/06/12 03:23:41;;;;;;;11.35;3.70;;;15.30;99.90;;;;;;5074617;28;20060;-76
2023/06/12 03:26:08;;;;;;;10.88;3.20;;;15.30;99.90;;;;;;5057755;28;20051;-76
2023/06/12 03:28:34;;;;;;;11.25;3.47;;;15.30;99.90;;;;;;5073953;28;20186;-76
2023/06/12 03:31:00;;;;;;;14.13;3.90;;;15.30;99.90;;;;;;5070479;28;20043;-76
2023/06/12 03:33:26;;;;;;;10.90;3.67;;;15.30;99.90;;;;;;5056863;28;20068;-76
2023/06/12 03:35:52;;;;;;;8.27;3.40;;;15.30;99.90;;;;;;5075836;28;20058;-76
2023/06/12 03:38:18;;;;;;;11.48;3.58;;;15.30;99.90;;;;;;5074199;28;20056;-76
2023/06/12 03:40:44;;;;;;;11.50;3.38;;;15.30;99.90;;;;;;5074479;28;20211;-76
2023/06/12 03:43:10;;;;;;;11.43;3.83;;;15.30;99.90;;;;;;5041604;28;20108;-76
2023/06/12 03:45:35;;;;;;;10.38;3.70;;;15.30;99.90;;;;;;5075880;28;20075;-76
2023/06/12 03:48:01;;;;;;;9.57;3.75;;;15.30;99.90;;;;;;5076312;28;20120;-76
2023/06/12 03:50:27;;;;;;;9.10;3.63;;;15.30;99.90;;;;;;5074819;28;20052;-76
2023/06/12 03:52:53;;;;;;;9.65;3.65;;;15.30;99.90;;;;;;5059361;28;20044;-76
2023/06/12 03:55:21;;;;;;;13.82;3.80;;;15.30;99.90;;;;;;5039917;28;20096;-76
2023/06/12 03:57:47;;;;;;;9.73;4.00;;;15.70;99.90;;;;;;5059569;28;20063;-76
2023/06/12 04:00:13;;;;;;;9.30;3.40;;;15.30;99.90;;;;;;5075472;28;20037;-76
2023/06/12 04:02:39;;;;;;;9.98;4.07;;;15.40;99.90;;;;;;5057941;28;20205;-76
2023/06/12 04:05:08;;;;;;;11.65;3.85;;;15.40;99.90;;;;;;5075812;28;20098;-76
2023/06/12 04:07:37;;;;;;;12.13;4.00;;;15.40;99.90;;;;;;5072910;28;20059;-76
2023/06/12 04:10:05;;;;;;;9.43;3.78;;;15.40;99.90;;;;;;5073872;28;20099;-76
2023/06/12 04:12:31;;;;;;;10.88;3.90;;;15.50;99.90;;;;;;5079379;28;20048;-76
2023/06/12 04:14:57;;;;;;;11.05;4.20;;;15.50;99.90;;;;;;5062572;28;20040;-76
2023/06/12 04:17:23;;;;;;;10.07;3.60;;;15.60;99.90;;;;;;5076455;28;20048;-76
2023/06/12 04:19:49;;;;;;;9.35;4.00;;;15.60;99.90;;;;;;5076496;28;20047;-77
2023/06/12 04:22:16;;;;;;;11.05;4.30;;;15.70;99.90;;;;;;5077403;28;20206;-76
2023/06/12 04:24:45;;;;;;;14.98;4.60;;;15.70;99.90;;;;;;5078731;28;20052;-76
2023/06/12 04:27:11;;;;;;;12.85;4.57;;;15.70;99.90;;;;;;5070056;28;20036;-77
2023/06/12 04:29:37;;;;;;;13.38;4.15;;;15.80;99.90;;;;;;5077201;28;20032;-77
2023/06/12 04:32:07;;;;;;;13.05;4.30;;;15.90;99.90;;;;;;5075348;28;20052;-76
2023/06/12 04:34:43;;;;;;;10.93;4.15;;;15.90;99.90;;;;;;5074445;28;20040;-76
2023/06/12 04:37:13;;;;;;;11.18;4.25;;;16.00;99.90;;;;;;5056276;28;20032;-76
2023/06/12 04:39:40;;;;;;;10.27;4.32;;;16.10;99.90;;;;;;5075993;28;20051;-76
2023/06/12 04:42:08;;;;;;;9.60;3.92;;;16.10;99.90;;;;;;5073449;28;20401;-76
2023/06/12 04:44:35;;;;;;;11.48;4.07;;;16.20;99.90;;;;;;5077008;28;20174;-76
2023/06/12 04:47:11;;;;;;;9.82;4.55;;;16.30;99.90;;;;;;5077870;28;20033;-77
2023/06/12 04:49:40;;;;;;;11.40;4.00;;;16.30;99.90;;;;;;5076090;28;20040;-77
2023/06/12 04:52:07;;;;;;;11.35;4.22;;;16.40;99.90;;;;;;5078309;28;20043;-77
2023/06/12 04:54:35;;;;;;;11.30;4.53;;;16.40;99.90;;;;;;5078001;28;20375;-77
2023/06/12 04:57:16;;;;;;;10.25;3.97;;;16.50;99.90;;;;;;5076416;28;20131;-77
2023/06/12 04:59:44;;;;;;;11.00;4.35;;;16.60;99.90;;;;;;5070262;28;20349;-76
2023/06/12 05:02:11;;;;;;;11.40;3.72;;;16.70;99.90;;;;;;5077759;28;20047;-76
2023/06/12 05:04:37;;;;;;;11.70;4.18;;;16.70;99.90;;;;;;5076918;28;20150;-77
2023/06/12 05:07:16;;;;;;;9.77;3.92;;;16.80;99.90;;;;;;5077287;28;20032;-76
2023/06/12 05:09:43;;;;;;;12.90;4.50;;;16.80;99.90;;;;;;5077120;28;20210;-77
2023/06/12 05:12:11;;;;;;;13.57;4.40;;;16.90;99.90;;;;;;5075015;28;20111;-77
2023/06/12 05:14:41;;;;;;;10.50;4.32;;;17.00;99.90;;;;;;5074190;28;20135;-77
2023/06/12 05:17:07;;;;;;;10.73;4.50;;;17.10;99.90;;;;;;5076830;28;20189;-77
2023/06/12 05:19:38;;;;;;;11.32;4.22;;;17.10;99.90;;;;;;5076819;28;20032;-77
2023/06/12 05:22:04;;;;;;;13.30;4.40;;;17.10;99.90;;;;;;5068239;28;20056;-78
2023/06/12 05:24:30;;;;;;;12.43;4.40;;;17.20;99.90;;;;;;5075045;28;20052;-76
2023/06/12 05:26:56;;;;;;;11.13;4.03;;;17.30;99.90;;;;;;5053055;28;20186;-77
2023/06/12 05:29:21;;;;;;;11.32;4.40;;;17.40;99.90;;;;;;5072807;28;20028;-77
2023/06/12 05:31:47;;;;;;;11.43;4.30;;;17.40;99.90;;;;;;5067920;28;20032;-79
2023/06/12 05:34:13;;;;;;;10.85;4.30;;;17.50;99.90;;;;;;5070139;28;20063;-78
2023/06/12 05:36:38;;;;;;;10.82;4.20;;;17.60;99.90;;;;;;5075303;28;20044;-78
2023/06/12 05:39:05;;;;;;;11.27;4.65;;;17.70;99.90;;;;;;5072416;28;20440;-78
2023/06/12 05:41:31;;;;;;;13.80;4.70;;;17.90;99.90;;;;;;5043275;28;20242;-78
2023/06/12 05:43:56;;;;;;;11.05;4.65;;;17.90;99.90;;;;;;5073233;28;20083;-78
2023/06/12 05:46:22;;;;;;;10.68;4.00;;;18.00;99.90;;;;;;5070642;28;20045;-78
2023/06/12 05:48:49;;;;;;;10.93;4.47;;;18.10;99.90;;;;;;5054822;28;20282;-78
2023/06/12 05:51:15;;;;;;;10.82;4.40;;;18.20;99.90;;;;;;5074058;28;20312;-78
2023/06/12 05:53:44;;;;;;;11.32;4.80;;;18.30;99.90;;;;;;5060868;28;20102;-78
2023/06/12 05:56:12;;;;;;;9.98;4.57;;;18.30;99.90;;;;;;5074492;28;20036;-78
2023/06/12 05:58:39;;;;;;;12.73;4.50;;;18.40;99.90;;;;;;5078042;28;20056;-77
2023/06/12 06:01:05;;;;;;;13.15;4.28;;;18.40;99.90;;;;;;5075803;28;20290;-78
2023/06/12 06:03:32;;;;;;;10.50;4.50;;;18.60;99.90;;;;;;5060906;28;20033;-79
2023/06/12 06:05:58;;;;;;;10.95;4.30;;;18.70;99.90;;;;;;5075742;28;20048;-78
2023/06/12 06:08:25;;;;;;;11.27;4.10;;;18.70;99.90;;;;;;5069624;28;20124;-78
2023/06/12 06:10:50;;;;;;;10.38;4.10;;;18.70;99.90;;;;;;5068477;28;20330;-78
2023/06/12 06:13:16;;;;;;;14.05;4.63;;;18.80;99.90;;;;;;5059789;28;20132;-79
2023/06/12 06:15:42;;;;;;;12.10;4.47;;;18.80;99.90;;;;;;5056144;28;20660;-78
2023/06/12 06:18:07;;;;;;;13.27;4.47;;;18.80;99.90;;;;;;5074592;28;20169;-78
2023/06/12 06:20:33;;;;;;;10.00;3.97;;;18.90;99.90;;;;;;5074603;28;20193;-78
2023/06/12 06:22:59;;;;;;;9.57;4.20;;;18.90;99.90;;;;;;5055518;28;20032;-78
2023/06/12 06:25:25;;;;;;;10.35;4.10;;;19.10;99.90;;;;;;5074761;28;20060;-77
2023/06/12 06:27:50;;;;;;;11.50;4.40;;;19.10;99.90;;;;;;5067571;28;20044;-77
2023/06/12 06:30:16;;;;;;;14.35;4.15;;;19.20;99.90;;;;;;5068787;28;20043;-77
2023/06/12 06:32:42;;;;;;;12.57;4.35;;;19.50;99.90;;;;;;5072524;28;20040;-77
2023/06/12 06:35:08;;;;;;;11.60;4.38;;;19.50;99.90;;;;;;5072689;28;20266;-77
2023/06/12 06:37:35;;;;;;;11.38;4.30;;;19.60;99.90;;;;;;5056775;28;20036;-77
2023/06/12 06:40:02;;;;;;;12.80;4.68;;;19.80;99.90;;;;;;5060499;28;20048;-77
2023/06/12 06:42:30;;;;;;;11.68;4.47;;;19.90;99.90;;;;;;5075400;28;20040;-77
2023/06/12 06:44:56;;;;;;;13.40;4.63;;;20.00;99.90;;;;;;5070851;28;20056;-77
2023/06/12 06:47:21;;;;;;;12.10;4.00;;;20.10;99.90;;;;;;5061466;28;20071;-77
2023/06/12 06:49:47;;;;;;;13.75;4.40;;;20.10;99.90;;;;;;5073047;28;20067;-77
2023/06/12 06:52:13;;;;;;;12.32;4.30;;;20.20;99.90;;;;;;5056804;28;21073;-77
2023/06/12 06:54:39;;;;;;;10.75;4.30;;;20.30;99.90;;;;;;5072805;28;20285;-77
2023/06/12 06:57:06;;;;;;;10.65;4.25;;;20.50;99.90;;;;;;5074050;28;20099;-77
2023/06/12 06:59:31;;;;;;;11.27;4.38;;;20.60;99.90;;;;;;5070246;28;20083;-77
2023/06/12 07:01:57;;;;;;;10.68;4.30;;;20.60;99.90;;;;;;5071694;28;20282;-77
2023/06/12 07:04:23;;;;;;;12.07;4.10;;;20.70;99.90;;;;;;5056921;28;20039;-77
2023/06/12 07:06:49;;;;;;;11.00;4.20;;;20.60;99.90;;;;;;5070062;28;20044;-77
2023/06/12 07:09:18;;;;;;;11.68;4.20;;;20.70;99.90;;;;;;5057052;28;20195;-77
2023/06/12 07:11:44;;;;;;;10.70;4.20;;;20.70;99.90;;;;;;5078172;28;20060;-77
2023/06/12 07:14:09;;;;;;;13.13;4.25;;;20.80;99.90;;;;;;5075651;28;20312;-77
2023/06/12 07:16:35;;;;;;;11.68;4.28;;;20.80;99.90;;;;;;5072596;28;20112;-77
2023/06/12 07:19:01;;;;;;;9.65;3.80;;;20.90;99.90;;;;;;5073240;28;20243;-77
2023/06/12 07:21:27;;;;;;;10.27;4.22;;;21.00;99.90;;;;;;5071216;28;20044;-76
2023/06/12 07:23:52;;;;;;;11.65;4.28;;;21.10;99.90;;;;;;5069780;28;20065;-77
2023/06/12 07:26:19;;;;;;;10.18;4.13;;;21.20;99.90;;;;;;5069050;28;20296;-76
2023/06/12 07:28:45;;;;;;;10.45;4.45;;;21.30;99.90;;;;;;5074766;28;20194;-77
2023/06/12 07:31:10;;;;;;;10.85;4.43;;;21.40;99.90;;;;;;5050930;28;20102;-77
2023/06/12 07:33:36;;;;;;;11.93;4.53;;;21.50;99.90;;;;;;5074010;28;20052;-78
2023/06/12 07:36:02;;;;;;;11.20;4.18;;;21.70;99.90;;;;;;5052507;28;20040;-77
2023/06/12 07:38:28;;;;;;;9.55;4.45;;;21.70;99.90;;;;;;5067944;28;20218;-76
2023/06/12 07:40:54;;;;;;;10.18;4.32;;;;;;;;;;5072301;28;20041;-78
2023/06/12 07:43:20;;;;;;;8.70;3.88;;;21.90;99.90;;;;;;5074775;28;20049;-77
2023/06/12 07:45:45;;;;;;;8.75;4.25;;;21.90;99.90;;;;;;5075386;28;20155;-77
2023/06/12 07:48:11;;;;;;;10.00;4.20;;;22.00;99.90;;;;;;5075130;28;20253;-77
2023/06/12 07:50:39;;;;;;;11.27;5.00;;;21.90;99.90;;;;;;5071687;28;20190;-77
2023/06/12 07:53:05;;;;;;;11.25;4.55;;;22.00;99.90;;;;;;5077379;28;20044;-77
2023/06/12 07:55:31;;;;;;;11.65;4.85;;;22.10;99.90;;;;;;5076674;28;20067;-77
2023/06/12 07:57:57;;;;;;;10.20;4.28;;;22.00;99.90;;;;;;5073679;28;20286;-77
2023/06/12 08:00:24;;;;;;;13.38;4.30;;;22.10;99.90;;;;;;5075832;28;20032;-77
2023/06/12 08:02:59;;;;;;;12.40;4.65;;;22.20;99.90;;;;;;5074360;28;20163;-78
2023/06/12 08:05:26;;;;;;;10.75;4.47;;;22.30;99.90;;;;;;5073966;28;20307;-77
2023/06/12 08:07:52;;;;;;;10.02;4.78;;;22.40;99.90;;;;;;5058210;28;20063;-77
2023/06/12 08:10:18;;;;;;;10.68;4.28;;;24.30;99.90;;;;;;5074411;28;20060;-77
2023/06/12 08:12:43;;;;;;;10.02;4.65;;;22.70;99.90;;;;;;5072737;28;20040;-77
2023/06/12 08:15:11;;;;;;;11.43;4.55;;;22.70;99.90;;;;;;5072296;28;20118;-77
2023/06/12 08:17:37;;;;;;;9.80;4.40;;;23.00;99.90;;;;;;5080221;28;20178;-77
2023/06/12 08:20:10;;;;;;;10.30;4.35;;;23.00;99.90;;;;;;5077998;28;20040;-77
2023/06/12 08:22:36;;;;;;;11.30;4.68;;;23.10;99.90;;;;;;5077885;28;20094;-77
2023/06/12 08:25:04;;;;;;;11.40;4.53;;;23.20;99.90;;;;;;5074206;28;20306;-77
2023/06/12 08:27:30;;;;;;;12.25;4.32;;;23.20;99.90;;;;;;5076205;28;20051;-77
2023/06/12 08:29:55;;;;;;;9.85;4.15;;;23.20;99.90;;;;;;5072591;28;20063;-77
2023/06/12 08:32:22;;;;;;;10.98;4.80;;;23.20;99.90;;;;;;5075052;28;20037;-77
2023/06/12 08:34:48;;;;;;;9.02;3.80;;;23.20;99.90;;;;;;5072992;28;20036;-77
2023/06/12 08:37:13;;;;;;;10.73;4.13;;;23.20;99.90;;;;;;5073912;28;20096;-77
2023/06/12 08:39:39;;;;;;;10.00;4.70;;;23.40;99.90;;;;;;5055538;28;20225;-77
2023/06/12 08:42:08;;;;;;;11.20;4.40;;;23.60;99.90;;;;;;5058322;28;20155;-77
2023/06/12 08:44:35;;;;;;;13.45;4.80;;;23.50;99.90;;;;;;5075625;28;20054;-77
2023/06/12 08:47:03;;;;;;;11.98;4.45;;;23.60;99.90;;;;;;5069400;28;20097;-77
2023/06/12 08:49:30;;;;;;;11.18;4.55;;;23.60;99.90;;;;;;5066654;28;20067;-78
2023/06/12 08:51:56;;;;;;;11.48;4.60;;;23.70;99.90;;;;;;5055184;28;20109;-77
2023/06/12 08:54:23;;;;;;;9.77;4.53;;;23.70;99.90;;;;;;5074623;28;20031;-77
2023/06/12 08:56:50;;;;;;;10.35;4.43;;;23.90;99.90;;;;;;5073605;28;20044;-77
2023/06/12 08:59:16;;;;;;;11.07;4.60;;;24.40;99.90;;;;;;5057452;28;20092;-78
2023/06/12 09:01:42;;;;;;;10.48;4.47;;;23.90;99.90;;;;;;5079200;28;20167;-77
2023/06/12 09:04:26;;;;;;;14.52;4.95;;;23.90;99.90;;;;;;5076997;28;20034;-77
2023/06/12 09:07:01;;;;;;;11.77;4.78;;;23.90;99.90;;;;;;5075687;28;20053;-77
2023/06/12 09:09:41;;;;;;;12.55;4.93;;;24.00;99.90;;;;;;5073413;28;20357;-77
2023/06/12 09:12:12;;;;;;;11.10;4.75;;;24.10;99.90;;;;;;5058070;28;20290;-78
2023/06/12 09:14:40;;;;;;;9.75;4.97;;;24.20;99.90;;;;;;5076265;28;20853;-78
2023/06/12 09:17:09;;;;;;;9.15;4.13;;;24.20;99.90;;;;;;5071600;28;20068;-78
2023/06/12 09:19:48;;;;;;;12.45;4.60;;;24.30;99.90;;;;;;5073322;28;20269;-77
2023/06/12 09:22:14;;;;;;;10.70;4.63;;;24.20;99.90;;;;;;5075479;28;20055;-78
2023/06/12 09:24:40;;;;;;;10.43;4.50;;;24.30;99.90;;;;;;5054568;28;20020;-77
2023/06/12 09:27:07;;;;;;;10.68;4.30;;;24.30;99.90;;;;;;5073684;28;20048;-78
2023/06/12 09:29:35;;;;;;;10.27;4.63;;;24.40;99.90;;;;;;5071005;28;20056;-77
2023/06/12 09:32:03;;;;;;;11.82;4.30;;;24.50;99.90;;;;;;5075076;28;20326;-77
2023/06/12 09:34:31;;;;;;;11.27;4.45;;;24.70;99.90;;;;;;5075371;28;20041;-79
2023/06/12 09:36:59;;;;;;;10.23;4.40;;;24.70;99.90;;;;;;5073438;28;20056;-77
2023/06/12 09:39:26;;;;;;;9.52;4.22;;;24.90;99.90;;;;;;5076426;28;20142;-77
2023/06/12 09:41:52;;;;;;;9.55;4.00;;;24.90;99.90;;;;;;5078309;28;20057;-77
2023/06/12 09:44:22;;;;;;;9.45;4.50;;;25.10;99.90;;;;;;5057413;28;20083;-77
2023/06/12 09:46:49;;;;;;;11.18;4.60;;;25.10;99.90;;;;;;5069347;28;20040;-77
2023/06/12 09:49:16;;;;;;;12.77;4.80;;;25.10;99.90;;;;;;5072172;28;20109;-78
2023/06/12 09:51:47;;;;;;;12.18;4.82;;;25.10;99.90;;;;;;5074636;28;20109;-78
2023/06/12 09:54:16;;;;;;;9.75;4.75;;;25.20;99.90;;;;;;5077419;28;20056;-78
2023/06/12 09:56:48;;;;;;;10.70;4.43;;;25.10;99.90;;;;;;5072917;28;20117;-77
2023/06/12 09:59:16;;;;;;;11.68;5.00;;;25.20;99.90;;;;;;5071306;28;20158;-77
2023/06/12 10:01:46;;;;;;;11.52;5.10;;;25.30;99.90;;;;;;5075589;28;20036;-79
2023/06/12 10:04:14;;;;;;;9.95;4.93;;;26.70;99.90;;;;;;5074027;28;20032;-78
2023/06/12 10:06:42;;;;;;;9.77;4.40;;;25.40;99.90;;;;;;5077920;28;20100;-77
2023/06/12 10:09:10;;;;;;;10.73;4.90;;;25.50;99.90;;;;;;5068356;28;20048;-78
2023/06/12 10:11:38;;;;;;;11.95;4.95;;;25.50;99.90;;;;;;5075097;28;20063;-78
2023/06/12 10:14:03;;;;;;;10.13;4.65;;;25.50;99.90;;;;;;5072277;28;20043;-77
2023/06/12 10:16:31;;;;;;;11.82;4.70;;;25.50;99.90;;;;;;5076657;28;20032;-77
2023/06/12 10:18:58;;;;;;;10.25;4.20;;;25.70;99.90;;;;;;5077234;28;20335;-77
2023/06/12 10:21:25;;;;;;;10.25;4.45;;;25.70;99.90;;;;;;5074063;28;20028;-78
2023/06/12 10:23:52;;;;;;;11.20;5.10;;;26.00;99.90;;;;;;5074455;28;20323;-78
2023/06/12 10:26:19;;;;;;;11.18;4.53;;;26.20;99.90;;;;;;5054205;28;20179;-77
2023/06/12 10:28:46;;;;;;;12.18;4.90;;;26.20;99.90;;;;;;5057927;28;20147;-78
2023/06/12 10:31:17;;;;;;;10.02;4.82;;;26.30;99.90;;;;;;5073525;28;20285;-78
2023/06/12 10:34:03;;;;;;;11.68;4.80;;;26.20;99.90;;;;;;5074171;28;20053;-79
2023/06/12 10:36:41;;;;;;;10.10;4.90;;;26.40;99.90;;;;;;5045819;28;20080;-77
2023/06/12 10:39:15;;;;;;;10.05;4.50;;;26.40;99.90;;;;;;5072258;28;20060;-78
2023/06/12 10:41:55;;;;;;;10.13;4.80;;;27.40;99.90;;;;;;5071584;28;20298;-78
2023/06/12 10:44:38;;;;;;;13.07;4.78;;;26.60;99.90;;;;;;5072264;28;20098;-78
2023/06/12 10:47:05;;;;;;;10.55;5.20;;;26.60;99.90;;;;;;5076039;28;20075;-78
2023/06/12 10:49:55;;;;;;;10.13;4.80;;;26.70;99.90;;;;;;5073370;28;20049;-78
2023/06/12 10:52:21;;;;;;;11.73;4.68;;;26.80;99.90;;;;;;5074742;28;20319;-77
2023/06/12 10:54:48;;;;;;;10.07;4.80;;;27.00;99.90;;;;;;5070413;28;20052;-77
2023/06/12 10:57:15;;;;;;;9.70;4.80;;;27.10;99.90;;;;;;5071054;28;20093;-78
2023/06/12 10:59:44;;;;;;;11.15;5.20;;;27.20;99.90;;;;;;5073142;28;20142;-78
2023/06/12 11:02:10;;;;;;;9.13;4.85;;;27.20;99.90;;;;;;5072514;28;20091;-78
2023/06/12 11:04:40;;;;;;;10.85;4.82;;;27.30;99.90;;;;;;5076149;28;20047;-79
2023/06/12 11:07:06;;;;;;;12.23;5.28;;;27.30;99.90;;;;;;5074973;28;20032;-78
2023/06/12 11:09:41;;;;;;;10.23;4.60;;;27.30;99.90;;;;;;5072027;28;20197;-79
2023/06/12 11:12:10;;;;;;;9.38;4.93;;;27.30;99.90;;;;;;5074730;28;20047;-77
2023/06/12 11:14:36;;;;;;;10.60;5.07;;;27.30;99.90;;;;;;5077313;28;20032;-78
2023/06/12 11:17:02;;;;;;;9.80;4.72;;;27.50;99.90;;;;;;5068793;28;20081;-77
2023/06/12 11:19:31;;;;;;;12.23;4.50;;;27.40;99.90;;;;;;5074509;28;20032;-77
2023/06/12 11:21:57;;;;;;;9.68;4.43;;;27.60;99.90;;;;;;5070990;28;20165;-78
2023/06/12 11:24:23;;;;;;;9.48;4.55;;;27.70;99.90;;;;;;5081562;28;20082;-78
2023/06/12 11:26:52;;;;;;;11.52;5.00;;;27.90;99.90;;;;;;5079837;28;20158;-78
2023/06/12 11:29:22;;;;;;;11.30;4.60;;;27.80;99.90;;;;;;5079331;28;20142;-78
2023/06/12 11:32:04;;;;;;;9.80;4.53;;;27.90;99.90;;;;;;5077314;28;20060;-78
2023/06/12 11:34:36;;;;;;;10.25;4.80;;;27.80;99.90;;;;;;5078330;28;20177;-78
2023/06/12 11:37:15;;;;;;;12.82;4.55;;;27.90;99.90;;;;;;5072475;28;20051;-78
2023/06/12 11:39:41;;;;;;;11.75;4.78;;;27.90;99.90;;;;;;5078514;28;20028;-78
2023/06/12 11:42:08;;;;;;;9.10;4.40;;;27.80;99.90;;;;;;5073784;28;20052;-78
2023/06/12 11:44:34;;;;;;;10.43;4.90;;;28.10;99.90;;;;;;5078646;28;20104;-78
2023/06/12 11:47:00;;;;;;;10.10;4.68;;;28.10;99.90;;;;;;5073164;28;20043;-78
2023/06/12 11:49:28;;;;;;;10.15;4.88;;;30.00;99.90;;;;;;5077606;28;20058;-78
2023/06/12 11:51:55;;;;;;;11.20;5.22;;;;;;;;;;5079815;28;20044;-78
2023/06/12 11:54:20;;;;;;;10.88;4.90;;;28.20;99.90;;;;;;5063084;28;20108;-78
2023/06/12 11:56:47;;;;;;;11.63;5.03;;;28.10;99.90;;;;;;5075131;28;20043;-78
2023/06/12 11:59:13;;;;;;;10.48;4.65;;;28.20;99.90;;;;;;5076393;28;20080;-78
2023/06/12 12:01:41;;;;;;;10.68;4.82;;;28.40;99.90;;;;;;5078533;28;20042;-78
2023/06/12 12:04:07;;;;;;;9.30;4.85;;;28.40;99.90;;;;;;5079018;28;20202;-78
2023/06/12 12:06:49;;;;;;;11.40;4.50;;;28.40;99.90;;;;;;5076836;28;20041;-79
2023/06/12 12:09:22;;;;;;;10.18;4.65;;;28.50;99.70;;;;;;5075845;28;20271;-79
2023/06/12 12:11:48;;;;;;;10.32;5.15;;;28.30;99.70;;;;;;5057340;28;20091;-78
2023/06/12 12:14:13;;;;;;;11.13;4.90;;;28.50;99.40;;;;;;5072352;28;20044;-79
2023/06/12 12:16:43;;;;;;;11.70;5.03;;;28.20;99.30;;;;;;5075182;28;20063;-78
2023/06/12 12:19:29;;;;;;;9.10;4.72;;;28.30;99.50;;;;;;5075728;28;20205;-78
2023/06/12 12:21:56;;;;;;;10.65;4.90;;;28.50;98.60;;;;;;5076468;28;20290;-78
2023/06/12 12:24:22;;;;;;;9.35;4.80;;;28.50;98.60;;;;;;5078823;28;20044;-78
2023/06/12 12:26:50;;;;;;;9.35;5.10;;;28.40;98.10;;;;;;5076358;28;20037;-80
2023/06/12 12:29:17;;;;;;;9.52;4.65;;;27.70;97.70;;;;;;5062937;28;20164;-78
2023/06/12 12:31:43;;;;;;;10.50;4.65;;;28.50;98.30;;;;;;5074364;28;20051;-79
2023/06/12 12:34:09;;;;;;;10.07;4.80;;;28.50;98.10;;;;;;5073446;28;20041;-78
2023/06/12 12:36:39;;;;;;;10.68;5.13;;;28.50;98.20;;;;;;5073310;28;20044;-79
2023/06/12 12:39:06;;;;;;;11.70;5.10;;;28.30;98.00;;;;;;5077176;28;21001;-78
2023/06/12 12:41:32;;;;;;;10.75;5.47;;;28.10;98.00;;;;;;5075214;28;20024;-79
2023/06/12 12:43:58;;;;;;;11.50;4.88;;;28.00;98.30;;;;;;5076497;28;20036;-78